sensor_id;sensor_type;location;lat;lon;timestamp;pressure;altitude;pressure_sealevel;temperature;humidity
30819;BME280;17546;42.674;23.284;2023-04-08T00:00:48;94802.28;;;13.96;35.86
30819;BME280;17546;42.674;23.284;2023-04-08T00:03:14;94796.28;;;13.87;36.16
30819;BME280;17546;42.674;23.284;2023-04-08T00:05:39;94807.38;;;13.92;35.82
30819;BME280;17546;42.674;23.284;2023-04-08T00:08:07;94797.66;;;13.69;36.38
30819;BME280;17546;42.674;23.284;2023-04-08T00:10:33;94801.63;;;13.84;36.42
30819;BME280;17546;42.674;23.284;2023-04-08T00:12:58;94793.78;;;13.83;36.35
30819;BME280;17546;42.674;23.284;2023-04-08T00:15:25;94812.75;;;13.84;36.34
30819;BME280;17546;42.674;23.284;2023-04-08T00:17:50;94799.00;;;13.98;36.27
30819;BME280;17546;42.674;23.284;2023-04-08T00:20:18;94777.06;;;13.83;36.37
30819;BME280;17546;42.674;23.284;2023-04-08T00:22:44;94792.16;;;13.93;36.22
30819;BME280;17546;42.674;23.284;2023-04-08T00:25:10;94791.91;;;13.97;36.06
30819;BME280;17546;42.674;23.284;2023-04-08T00:27:35;94793.97;;;13.91;36.10
30819;BME280;17546;42.674;23.284;2023-04-08T00:30:01;94777.34;;;13.79;35.97
30819;BME280;17546;42.674;23.284;2023-04-08T00:32:27;94791.97;;;13.85;36.16
30819;BME280;17546;42.674;23.284;2023-04-08T00:34:53;94797.28;;;13.89;36.18
30819;BME280;17546;42.674;23.284;2023-04-08T00:37:19;94776.88;;;13.75;36.54
30819;BME280;17546;42.674;23.284;2023-04-08T00:39:45;94774.56;;;13.79;36.58
30819;BME280;17546;42.674;23.284;2023-04-08T00:42:11;94779.34;;;13.84;36.35
30819;BME280;17546;42.674;23.284;2023-04-08T00:44:36;94777.25;;;13.91;36.25
30819;BME280;17546;42.674;23.284;2023-04-08T00:47:02;94760.63;;;13.79;36.17
30819;BME280;17546;42.674;23.284;2023-04-08T00:49:30;94796.25;;;13.92;36.27
30819;BME280;17546;42.674;23.284;2023-04-08T00:51:56;94794.69;;;13.97;36.31
30819;BME280;17546;42.674;23.284;2023-04-08T00:54:21;94798.50;;;13.94;36.57
30819;BME280;17546;42.674;23.284;2023-04-08T00:56:47;94803.00;;;14.02;36.30
30819;BME280;17546;42.674;23.284;2023-04-08T00:59:13;94781.56;;;13.92;36.13
30819;BME280;17546;42.674;23.284;2023-04-08T01:01:45;94804.00;;;14.05;36.37
30819;BME280;17546;42.674;23.284;2023-04-08T01:09:39;94805.00;;;14.02;36.48
30819;BME280;17546;42.674;23.284;2023-04-08T01:12:11;94786.91;;;13.90;36.37
30819;BME280;17546;42.674;23.284;2023-04-08T01:14:42;94791.09;;;14.02;36.11
30819;BME280;17546;42.674;23.284;2023-04-08T01:17:09;94808.81;;;14.04;36.24
30819;BME280;17546;42.674;23.284;2023-04-08T01:19:38;94794.69;;;13.97;36.29
30819;BME280;17546;42.674;23.284;2023-04-08T01:22:14;94807.03;;;14.07;36.36
30819;BME280;17546;42.674;23.284;2023-04-08T01:24:44;94809.28;;;14.09;36.13
30819;BME280;17546;42.674;23.284;2023-04-08T01:27:13;94811.50;;;14.16;36.04
30819;BME280;17546;42.674;23.284;2023-04-08T01:29:40;94811.22;;;14.19;36.16
30819;BME280;17546;42.674;23.284;2023-04-08T01:32:08;94812.03;;;14.14;36.35
30819;BME280;17546;42.674;23.284;2023-04-08T01:34:35;94804.47;;;14.09;36.56
30819;BME280;17546;42.674;23.284;2023-04-08T01:37:06;94789.91;;;13.92;36.68
30819;BME280;17546;42.674;23.284;2023-04-08T01:39:34;94805.50;;;14.06;36.66
30819;BME280;17546;42.674;23.284;2023-04-08T01:42:00;94805.22;;;14.10;36.63
30819;BME280;17546;42.674;23.284;2023-04-08T01:44:27;94811.53;;;14.10;36.78
30819;BME280;17546;42.674;23.284;2023-04-08T01:46:54;94801.94;;;14.11;36.55
30819;BME280;17546;42.674;23.284;2023-04-08T01:49:21;94813.06;;;14.11;36.66
30819;BME280;17546;42.674;23.284;2023-04-08T01:51:48;94811.78;;;14.12;36.74
30819;BME280;17546;42.674;23.284;2023-04-08T01:54:16;94812.03;;;14.14;36.69
30819;BME280;17546;42.674;23.284;2023-04-08T01:56:43;94821.19;;;14.09;36.55
30819;BME280;17546;42.674;23.284;2023-04-08T01:59:13;94820.38;;;14.14;36.47
30819;BME280;17546;42.674;23.284;2023-04-08T02:01:42;94816.41;;;14.04;36.94
30819;BME280;17546;42.674;23.284;2023-04-08T02:04:08;94802.56;;;13.93;36.76
30819;BME280;17546;42.674;23.284;2023-04-08T02:06:34;94833.66;;;13.97;36.85
30819;BME280;17546;42.674;23.284;2023-04-08T02:09:00;94831.69;;;13.92;36.97
30819;BME280;17546;42.674;23.284;2023-04-08T02:11:26;94823.91;;;13.84;37.08
30819;BME280;17546;42.674;23.284;2023-04-08T02:13:52;94833.91;;;13.63;37.03
30819;BME280;17546;42.674;23.284;2023-04-08T02:19:31;94842.31;;;13.52;37.80
30819;BME280;17546;42.674;23.284;2023-04-08T02:25:03;94824.19;;;13.28;37.79
30819;BME280;17546;42.674;23.284;2023-04-08T02:27:33;94841.31;;;13.43;37.80
30819;BME280;17546;42.674;23.284;2023-04-08T02:29:59;94830.22;;;13.38;37.89
30819;BME280;17546;42.674;23.284;2023-04-08T02:32:27;94839.03;;;13.48;37.71
30819;BME280;17546;42.674;23.284;2023-04-08T02:34:53;94836.53;;;13.27;38.06
30819;BME280;17546;42.674;23.284;2023-04-08T02:37:20;94821.19;;;13.15;38.11
30819;BME280;17546;42.674;23.284;2023-04-08T02:39:48;94832.56;;;13.11;38.15
30819;BME280;17546;42.674;23.284;2023-04-08T02:42:14;94838.91;;;13.06;38.12
30819;BME280;17546;42.674;23.284;2023-04-08T02:44:40;94846.50;;;13.06;38.10
30819;BME280;17546;42.674;23.284;2023-04-08T02:47:05;94840.44;;;13.01;38.23
30819;BME280;17546;42.674;23.284;2023-04-08T02:49:30;94836.72;;;12.88;38.40
30819;BME280;17546;42.674;23.284;2023-04-08T02:51:56;94839.19;;;12.97;38.15
30819;BME280;17546;42.674;23.284;2023-04-08T02:54:21;94835.94;;;12.87;38.44
30819;BME280;17546;42.674;23.284;2023-04-08T02:56:47;94839.00;;;12.84;38.53
30819;BME280;17546;42.674;23.284;2023-04-08T02:59:12;94839.94;;;13.03;38.44
30819;BME280;17546;42.674;23.284;2023-04-08T03:01:38;94833.59;;;13.08;38.30
30819;BME280;17546;42.674;23.284;2023-04-08T03:04:03;94848.06;;;12.95;38.51
30819;BME280;17546;42.674;23.284;2023-04-08T03:06:28;94846.03;;;12.96;38.48
30819;BME280;17546;42.674;23.284;2023-04-08T03:08:55;94836.16;;;13.00;38.59
30819;BME280;17546;42.674;23.284;2023-04-08T03:11:21;94842.00;;;12.91;38.51
30819;BME280;17546;42.674;23.284;2023-04-08T03:13:46;94835.44;;;12.94;38.54
30819;BME280;17546;42.674;23.284;2023-04-08T03:16:14;94836.69;;;12.93;38.42
30819;BME280;17546;42.674;23.284;2023-04-08T03:18:40;94830.56;;;13.06;38.41
30819;BME280;17546;42.674;23.284;2023-04-08T03:21:05;94834.59;;;13.11;38.22
30819;BME280;17546;42.674;23.284;2023-04-08T03:23:31;94825.72;;;13.18;38.04
30819;BME280;17546;42.674;23.284;2023-04-08T03:25:56;94840.50;;;12.90;38.63
30819;BME280;17546;42.674;23.284;2023-04-08T03:28:22;94812.47;;;12.77;38.66
30819;BME280;17546;42.674;23.284;2023-04-08T03:30:48;94831.88;;;12.94;38.44
30819;BME280;17546;42.674;23.284;2023-04-08T03:33:14;94837.91;;;13.03;38.38
30819;BME280;17546;42.674;23.284;2023-04-08T03:35:40;94832.56;;;13.11;38.30
30819;BME280;17546;42.674;23.284;2023-04-08T03:38:05;94817.66;;;13.09;38.06
30819;BME280;17546;42.674;23.284;2023-04-08T03:40:31;94823.22;;;13.09;38.43
30819;BME280;17546;42.674;23.284;2023-04-08T03:42:56;94835.31;;;13.28;38.13
30819;BME280;17546;42.674;23.284;2023-04-08T03:45:22;94833.28;;;13.34;37.99
30819;BME280;17546;42.674;23.284;2023-04-08T03:47:47;94840.56;;;13.43;37.79
30819;BME280;17546;42.674;23.284;2023-04-08T03:50:13;94817.34;;;13.35;37.85
30819;BME280;17546;42.674;23.284;2023-04-08T03:52:38;94843.25;;;13.60;37.71
30819;BME280;17546;42.674;23.284;2023-04-08T03:55:04;94828.09;;;13.61;37.74
30819;BME280;17546;42.674;23.284;2023-04-08T03:57:30;94837.00;;;13.54;37.67
30819;BME280;17546;42.674;23.284;2023-04-08T03:59:55;94837.44;;;13.63;37.50
30819;BME280;17546;42.674;23.284;2023-04-08T04:02:20;94817.69;;;13.61;37.43
30819;BME280;17546;42.674;23.284;2023-04-08T04:04:46;94834.81;;;13.77;37.35
30819;BME280;17546;42.674;23.284;2023-04-08T04:07:11;94831.53;;;13.78;37.35
30819;BME280;17546;42.674;23.284;2023-04-08T04:09:37;94815.16;;;13.63;37.50
30819;BME280;17546;42.674;23.284;2023-04-08T04:12:02;94814.13;;;13.67;37.51
30819;BME280;17546;42.674;23.284;2023-04-08T04:14:28;94833.06;;;13.74;37.70
30819;BME280;17546;42.674;23.284;2023-04-08T04:16:53;94840.91;;;13.75;37.53
30819;BME280;17546;42.674;23.284;2023-04-08T04:19:18;94843.19;;;13.71;37.67
30819;BME280;17546;42.674;23.284;2023-04-08T04:21:44;94840.88;;;13.81;37.46
30819;BME280;17546;42.674;23.284;2023-04-08T04:24:10;94841.25;;;13.60;37.88
30819;BME280;17546;42.674;23.284;2023-04-08T04:26:35;94826.69;;;13.37;37.95
30819;BME280;17546;42.674;23.284;2023-04-08T04:29:00;94835.81;;;13.32;38.18
30819;BME280;17546;42.674;23.284;2023-04-08T04:31:26;94850.66;;;13.52;38.01
30819;BME280;17546;42.674;23.284;2023-04-08T04:33:52;94853.25;;;13.33;38.02
30819;BME280;17546;42.674;23.284;2023-04-08T04:36:21;94855.75;;;13.42;38.03
30819;BME280;17546;42.674;23.284;2023-04-08T04:38:46;94841.38;;;13.32;37.85
30819;BME280;17546;42.674;23.284;2023-04-08T04:41:13;94838.09;;;13.28;38.08
30819;BME280;17546;42.674;23.284;2023-04-08T04:43:38;94852.50;;;13.32;38.00
30819;BME280;17546;42.674;23.284;2023-04-08T04:46:04;94854.28;;;13.30;38.01
30819;BME280;17546;42.674;23.284;2023-04-08T04:48:33;94853.59;;;13.01;38.47
30819;BME280;17546;42.674;23.284;2023-04-08T04:50:59;94841.28;;;12.79;38.85
30819;BME280;17546;42.674;23.284;2023-04-08T04:53:27;94835.44;;;12.94;38.50
30819;BME280;17546;42.674;23.284;2023-04-08T04:55:52;94863.16;;;13.17;38.21
30819;BME280;17546;42.674;23.284;2023-04-08T04:58:18;94865.19;;;13.05;38.57
30819;BME280;17546;42.674;23.284;2023-04-08T05:00:43;94857.84;;;13.19;38.50
30819;BME280;17546;42.674;23.284;2023-04-08T05:03:09;94861.38;;;13.14;38.40
30819;BME280;17546;42.674;23.284;2023-04-08T05:05:34;94864.66;;;13.18;38.19
30819;BME280;17546;42.674;23.284;2023-04-08T05:08:00;94849.03;;;13.03;38.38
30819;BME280;17546;42.674;23.284;2023-04-08T05:10:25;94861.88;;;13.18;38.41
30819;BME280;17546;42.674;23.284;2023-04-08T05:12:51;94864.66;;;13.18;38.48
30819;BME280;17546;42.674;23.284;2023-04-08T05:15:16;94855.59;;;13.12;38.58
30819;BME280;17546;42.674;23.284;2023-04-08T05:17:41;94845.56;;;12.86;39.13
30819;BME280;17546;42.674;23.284;2023-04-08T05:20:07;94858.94;;;12.88;38.92
30819;BME280;17546;42.674;23.284;2023-04-08T05:22:32;94871.09;;;12.79;39.35
30819;BME280;17546;42.674;23.284;2023-04-08T05:24:58;94844.31;;;12.76;39.23
30819;BME280;17546;42.674;23.284;2023-04-08T05:27:24;94860.91;;;12.98;39.14
30819;BME280;17546;42.674;23.284;2023-04-08T05:29:49;94859.38;;;13.09;38.93
30819;BME280;17546;42.674;23.284;2023-04-08T05:32:15;94834.84;;;13.13;38.73
30819;BME280;17546;42.674;23.284;2023-04-08T05:34:41;94852.00;;;13.28;38.76
30819;BME280;17546;42.674;23.284;2023-04-08T05:37:07;94862.31;;;13.44;38.46
30819;BME280;17546;42.674;23.284;2023-04-08T05:39:32;94860.13;;;13.15;38.81
30819;BME280;17546;42.674;23.284;2023-04-08T05:41:57;94859.38;;;13.14;38.88
30819;BME280;17546;42.674;23.284;2023-04-08T05:44:23;94861.63;;;13.16;38.93
30819;BME280;17546;42.674;23.284;2023-04-08T05:46:48;94866.94;;;13.25;38.68
30819;BME280;17546;42.674;23.284;2023-04-08T05:49:13;94866.69;;;13.17;38.71
30819;BME280;17546;42.674;23.284;2023-04-08T05:51:41;94853.53;;;13.18;39.10
30819;BME280;17546;42.674;23.284;2023-04-08T05:54:06;94865.44;;;13.13;38.98
30819;BME280;17546;42.674;23.284;2023-04-08T05:56:32;94861.84;;;13.35;38.44
30819;BME280;17546;42.674;23.284;2023-04-08T05:58:57;94861.31;;;13.42;38.45
30819;BME280;17546;42.674;23.284;2023-04-08T06:01:23;94855.94;;;13.55;38.35
30819;BME280;17546;42.674;23.284;2023-04-08T06:03:49;94857.97;;;13.55;38.29
30819;BME280;17546;42.674;23.284;2023-04-08T06:06:16;94847.06;;;13.57;38.26
30819;BME280;17546;42.674;23.284;2023-04-08T06:08:42;94859.69;;;13.69;38.22
30819;BME280;17546;42.674;23.284;2023-04-08T06:11:07;94837.97;;;13.56;38.15
30819;BME280;17546;42.674;23.284;2023-04-08T06:13:32;94862.75;;;13.60;38.28
30819;BME280;17546;42.674;23.284;2023-04-08T06:15:58;94840.78;;;13.51;38.24
30819;BME280;17546;42.674;23.284;2023-04-08T06:18:33;94855.38;;;13.68;38.16
30819;BME280;17546;42.674;23.284;2023-04-08T06:20:59;94849.06;;;13.62;37.99
30819;BME280;17546;42.674;23.284;2023-04-08T06:23:24;94853.16;;;13.55;38.32
30819;BME280;17546;42.674;23.284;2023-04-08T06:25:49;94850.88;;;13.95;37.70
30819;BME280;17546;42.674;23.284;2023-04-08T06:28:17;94844.50;;;14.06;37.67
30819;BME280;17546;42.674;23.284;2023-04-08T06:30:42;94842.25;;;14.04;37.67
30819;BME280;17546;42.674;23.284;2023-04-08T06:33:08;94853.97;;;14.27;37.26
30819;BME280;17546;42.674;23.284;2023-04-08T06:35:33;94849.22;;;14.17;36.92
30819;BME280;17546;42.674;23.284;2023-04-08T06:37:59;94861.25;;;14.36;37.31
30819;BME280;17546;42.674;23.284;2023-04-08T06:40:24;94861.41;;;14.44;37.34
30819;BME280;17546;42.674;23.284;2023-04-08T06:42:49;94836.38;;;14.08;37.30
30819;BME280;17546;42.674;23.284;2023-04-08T06:45:15;94867.16;;;14.21;37.37
30819;BME280;17546;42.674;23.284;2023-04-08T06:47:40;94860.69;;;14.08;37.45
30819;BME280;17546;42.674;23.284;2023-04-08T06:50:06;94851.59;;;14.07;37.22
30819;BME280;17546;42.674;23.284;2023-04-08T06:52:31;94861.28;;;13.95;37.54
30819;BME280;17546;42.674;23.284;2023-04-08T06:54:57;94849.31;;;14.05;37.52
30819;BME280;17546;42.674;23.284;2023-04-08T06:57:22;94868.16;;;14.24;37.38
30819;BME280;17546;42.674;23.284;2023-04-08T06:59:47;94857.94;;;14.38;37.37
30819;BME280;17546;42.674;23.284;2023-04-08T07:02:13;94870.97;;;14.54;37.09
30819;BME280;17546;42.674;23.284;2023-04-08T07:04:40;94862.59;;;14.60;36.69
30819;BME280;17546;42.674;23.284;2023-04-08T07:07:05;94862.53;;;14.65;36.51
30819;BME280;17546;42.674;23.284;2023-04-08T07:09:31;94869.06;;;14.74;36.30
30819;BME280;17546;42.674;23.284;2023-04-08T07:11:56;94838.38;;;14.74;36.09
30819;BME280;17546;42.674;23.284;2023-04-08T07:14:22;94854.75;;;14.83;36.21
30819;BME280;17546;42.674;23.284;2023-04-08T07:16:47;94870.00;;;15.06;36.16
30819;BME280;17546;42.674;23.284;2023-04-08T07:19:13;94856.41;;;14.37;36.32
30819;BME280;17546;42.674;23.284;2023-04-08T07:21:38;94857.38;;;14.45;36.56
30819;BME280;17546;42.674;23.284;2023-04-08T07:24:04;94876.00;;;14.61;39.54
30819;BME280;17546;42.674;23.284;2023-04-08T07:26:30;94874.25;;;15.13;40.06
30819;BME280;17546;42.674;23.284;2023-04-08T07:28:55;94876.34;;;15.69;36.88
30819;BME280;17546;42.674;23.284;2023-04-08T07:31:20;94856.66;;;15.62;35.74
30819;BME280;17546;42.674;23.284;2023-04-08T07:33:46;94882.81;;;15.83;35.94
30819;BME280;17546;42.674;23.284;2023-04-08T07:36:13;94868.28;;;15.66;35.00
30819;BME280;17546;42.674;23.284;2023-04-08T07:38:39;94876.72;;;14.92;36.03
30819;BME280;17546;42.674;23.284;2023-04-08T07:41:05;94884.34;;;15.60;35.60
30819;BME280;17546;42.674;23.284;2023-04-08T07:43:31;94875.34;;;15.73;35.27
30819;BME280;17546;42.674;23.284;2023-04-08T07:46:02;94895.13;;;15.94;35.10
30819;BME280;17546;42.674;23.284;2023-04-08T07:48:32;94895.28;;;16.01;35.03
30819;BME280;17546;42.674;23.284;2023-04-08T07:51:04;94894.59;;;15.95;34.96
30819;BME280;17546;42.674;23.284;2023-04-08T07:53:30;94897.31;;;16.01;35.05
30819;BME280;17546;42.674;23.284;2023-04-08T07:55:56;94897.84;;;15.99;35.33
30819;BME280;17546;42.674;23.284;2023-04-08T07:58:21;94904.31;;;15.88;35.34
30819;BME280;17546;42.674;23.284;2023-04-08T08:00:47;94887.94;;;15.98;35.16
30819;BME280;17546;42.674;23.284;2023-04-08T08:03:12;94912.41;;;16.11;35.16
30819;BME280;17546;42.674;23.284;2023-04-08T08:05:38;94907.88;;;16.08;35.19
30819;BME280;17546;42.674;23.284;2023-04-08T08:08:03;94910.00;;;16.02;34.95
30819;BME280;17546;42.674;23.284;2023-04-08T08:10:31;94903.34;;;16.05;35.18
30819;BME280;17546;42.674;23.284;2023-04-08T08:12:57;94910.69;;;15.64;35.56
30819;BME280;17546;42.674;23.284;2023-04-08T08:15:22;94904.47;;;15.77;35.63
30819;BME280;17546;42.674;23.284;2023-04-08T08:17:47;94903.06;;;15.65;35.71
30819;BME280;17546;42.674;23.284;2023-04-08T08:20:13;94913.63;;;15.97;35.44
30819;BME280;17546;42.674;23.284;2023-04-08T08:22:38;94904.56;;;16.09;35.30
30819;BME280;17546;42.674;23.284;2023-04-08T08:25:04;94911.34;;;16.14;35.20
30819;BME280;17546;42.674;23.284;2023-04-08T08:27:30;94900.94;;;15.96;35.17
30819;BME280;17546;42.674;23.284;2023-04-08T08:29:56;94910.00;;;15.15;36.69
30819;BME280;17546;42.674;23.284;2023-04-08T08:32:22;94895.94;;;15.26;36.53
30819;BME280;17546;42.674;23.284;2023-04-08T08:34:48;94910.44;;;15.19;36.87
30819;BME280;17546;42.674;23.284;2023-04-08T08:37:13;94918.56;;;15.17;37.05
30819;BME280;17546;42.674;23.284;2023-04-08T08:39:38;94899.94;;;15.49;36.68
30819;BME280;17546;42.674;23.284;2023-04-08T08:42:04;94896.00;;;14.90;37.80
30819;BME280;17546;42.674;23.284;2023-04-08T08:44:29;94910.63;;;15.26;37.40
30819;BME280;17546;42.674;23.284;2023-04-08T08:46:55;94909.38;;;15.71;36.54
30819;BME280;17546;42.674;23.284;2023-04-08T08:49:20;94911.63;;;15.91;36.48
30819;BME280;17546;42.674;23.284;2023-04-08T08:51:47;94912.19;;;14.97;37.76
30819;BME280;17546;42.674;23.284;2023-04-08T08:54:14;94884.75;;;15.26;37.20
30819;BME280;17546;42.674;23.284;2023-04-08T08:56:39;94878.44;;;15.88;36.41
30819;BME280;17546;42.674;23.284;2023-04-08T08:59:07;94890.38;;;15.88;36.42
30819;BME280;17546;42.674;23.284;2023-04-08T09:01:42;94909.31;;;16.15;36.15
30819;BME280;17546;42.674;23.284;2023-04-08T09:04:16;94910.91;;;16.10;36.09
30819;BME280;17546;42.674;23.284;2023-04-08T09:06:45;94914.16;;;16.14;36.07
30819;BME280;17546;42.674;23.284;2023-04-08T09:09:10;94914.28;;;16.22;36.38
30819;BME280;17546;42.674;23.284;2023-04-08T09:11:38;94912.72;;;16.07;35.90
30819;BME280;17546;42.674;23.284;2023-04-08T09:14:04;94907.34;;;15.90;36.40
30819;BME280;17546;42.674;23.284;2023-04-08T09:16:31;94907.03;;;16.13;36.67
30819;BME280;17546;42.674;23.284;2023-04-08T09:19:07;94893.06;;;16.32;35.89
30819;BME280;17546;42.674;23.284;2023-04-08T09:21:34;94911.28;;;16.52;36.21
30819;BME280;17546;42.674;23.284;2023-04-08T09:24:00;94898.19;;;16.09;36.38
30819;BME280;17546;42.674;23.284;2023-04-08T09:26:25;94897.47;;;16.73;35.62
30819;BME280;17546;42.674;23.284;2023-04-08T09:29:07;94915.78;;;17.20;34.48
30819;BME280;17546;42.674;23.284;2023-04-08T09:34:11;94897.03;;;17.01;34.47
30819;BME280;17546;42.674;23.284;2023-04-08T09:36:37;94902.41;;;17.12;34.60
30819;BME280;17546;42.674;23.284;2023-04-08T09:39:03;94890.56;;;16.61;35.18
30819;BME280;17546;42.674;23.284;2023-04-08T09:41:34;94895.81;;;16.83;34.94
30819;BME280;17546;42.674;23.284;2023-04-08T09:44:05;94896.47;;;16.89;34.37
30819;BME280;17546;42.674;23.284;2023-04-08T09:46:38;94880.84;;;16.81;34.33
30819;BME280;17546;42.674;23.284;2023-04-08T09:51:52;94867.56;;;17.13;33.78
30819;BME280;17546;42.674;23.284;2023-04-08T09:54:30;94871.94;;;17.62;33.07
30819;BME280;17546;42.674;23.284;2023-04-08T09:57:10;94866.63;;;16.79;33.93
30819;BME280;17546;42.674;23.284;2023-04-08T09:59:42;94875.94;;;17.00;33.96
30819;BME280;17546;42.674;23.284;2023-04-08T10:02:10;94888.44;;;17.39;34.09
30819;BME280;17546;42.674;23.284;2023-04-08T10:04:38;94864.28;;;17.76;33.10
30819;BME280;17546;42.674;23.284;2023-04-08T10:07:07;94861.25;;;17.74;33.43
30819;BME280;17546;42.674;23.284;2023-04-08T10:09:33;94858.91;;;17.65;32.89
30819;BME280;17546;42.674;23.284;2023-04-08T10:12:00;94881.75;;;17.55;33.25
30819;BME280;17546;42.674;23.284;2023-04-08T10:14:27;94856.31;;;17.67;32.83
30819;BME280;17546;42.674;23.284;2023-04-08T10:17:24;94880.56;;;17.77;33.28
30819;BME280;17546;42.674;23.284;2023-04-08T10:19:53;94874.38;;;17.79;32.72
30819;BME280;17546;42.674;23.284;2023-04-08T10:22:45;94872.53;;;16.75;34.29
30819;BME280;17546;42.674;23.284;2023-04-08T10:27:41;94868.22;;;17.33;34.19
30819;BME280;17546;42.674;23.284;2023-04-08T10:32:59;94854.09;;;17.39;33.79
30819;BME280;17546;42.674;23.284;2023-04-08T10:35:28;94868.19;;;17.06;34.40
30819;BME280;17546;42.674;23.284;2023-04-08T10:37:54;94829.88;;;17.14;33.81
30819;BME280;17546;42.674;23.284;2023-04-08T10:40:20;94861.94;;;17.53;33.77
30819;BME280;17546;42.674;23.284;2023-04-08T10:42:45;94842.88;;;17.52;33.52
30819;BME280;17546;42.674;23.284;2023-04-08T10:45:15;94852.88;;;17.61;33.48
30819;BME280;17546;42.674;23.284;2023-04-08T10:47:42;94830.56;;;18.16;33.17
30819;BME280;17546;42.674;23.284;2023-04-08T10:50:15;94842.88;;;18.13;33.11
30819;BME280;17546;42.674;23.284;2023-04-08T10:52:48;94828.25;;;17.93;33.25
30819;BME280;17546;42.674;23.284;2023-04-08T10:55:14;94842.19;;;17.72;33.43
30819;BME280;17546;42.674;23.284;2023-04-08T10:57:41;94829.41;;;17.37;33.94
30819;BME280;17546;42.674;23.284;2023-04-08T11:00:10;94818.00;;;17.48;33.84
30819;BME280;17546;42.674;23.284;2023-04-08T11:02:38;94812.88;;;17.87;32.96
30819;BME280;17546;42.674;23.284;2023-04-08T11:05:04;94817.69;;;18.00;32.63
30819;BME280;17546;42.674;23.284;2023-04-08T11:07:30;94812.25;;;18.15;32.40
30819;BME280;17546;42.674;23.284;2023-04-08T11:09:55;94809.59;;;18.30;32.82
30819;BME280;17546;42.674;23.284;2023-04-08T11:12:21;94801.34;;;17.77;32.70
30819;BME280;17546;42.674;23.284;2023-04-08T11:14:47;94795.91;;;18.06;33.44
30819;BME280;17546;42.674;23.284;2023-04-08T11:17:17;94819.03;;;17.72;33.10
30819;BME280;17546;42.674;23.284;2023-04-08T11:19:43;94814.84;;;18.13;32.76
30819;BME280;17546;42.674;23.284;2023-04-08T11:22:11;94808.63;;;18.49;32.55
30819;BME280;17546;42.674;23.284;2023-04-08T11:24:37;94807.31;;;18.29;32.18
30819;BME280;17546;42.674;23.284;2023-04-08T11:27:03;94809.06;;;17.98;32.41
30819;BME280;17546;42.674;23.284;2023-04-08T11:29:31;94788.09;;;18.12;32.42
30819;BME280;17546;42.674;23.284;2023-04-08T11:31:57;94783.25;;;18.33;32.40
30819;BME280;17546;42.674;23.284;2023-04-08T11:34:24;94786.91;;;18.49;31.76
30819;BME280;17546;42.674;23.284;2023-04-08T11:36:50;94793.69;;;18.54;31.30
30819;BME280;17546;42.674;23.284;2023-04-08T11:39:15;94786.84;;;18.63;31.26
30819;BME280;17546;42.674;23.284;2023-04-08T11:41:41;94783.91;;;17.84;32.20
30819;BME280;17546;42.674;23.284;2023-04-08T11:44:07;94769.75;;;18.32;31.81
30819;BME280;17546;42.674;23.284;2023-04-08T11:46:33;94778.78;;;18.59;31.90
30819;BME280;17546;42.674;23.284;2023-04-08T11:49:07;94773.50;;;18.76;31.38
30819;BME280;17546;42.674;23.284;2023-04-08T11:51:34;94771.16;;;18.67;30.48
30819;BME280;17546;42.674;23.284;2023-04-08T11:54:31;94742.91;;;18.36;30.56
30819;BME280;17546;42.674;23.284;2023-04-08T11:56:58;94755.06;;;18.18;30.83
30819;BME280;17546;42.674;23.284;2023-04-08T11:59:24;94771.41;;;18.27;30.81
30819;BME280;17546;42.674;23.284;2023-04-08T12:01:52;94759.41;;;18.19;31.25
30819;BME280;17546;42.674;23.284;2023-04-08T12:04:18;94753.78;;;17.50;31.58
30819;BME280;17546;42.674;23.284;2023-04-08T12:06:43;94762.28;;;16.97;32.02
30819;BME280;17546;42.674;23.284;2023-04-08T12:09:12;94768.25;;;17.41;31.81
30819;BME280;17546;42.674;23.284;2023-04-08T12:11:37;94741.63;;;16.73;32.68
30819;BME280;17546;42.674;23.284;2023-04-08T12:14:03;94762.00;;;17.35;32.43
30819;BME280;17546;42.674;23.284;2023-04-08T12:16:28;94754.13;;;17.47;32.54
30819;BME280;17546;42.674;23.284;2023-04-08T12:18:54;94758.00;;;16.96;32.99
30819;BME280;17546;42.674;23.284;2023-04-08T12:21:19;94754.75;;;17.66;32.32
30819;BME280;17546;42.674;23.284;2023-04-08T12:23:45;94752.88;;;17.34;32.09
30819;BME280;17546;42.674;23.284;2023-04-08T12:26:10;94731.19;;;17.83;31.84
30819;BME280;17546;42.674;23.284;2023-04-08T12:28:36;94745.09;;;18.09;32.13
30819;BME280;17546;42.674;23.284;2023-04-08T12:31:02;94736.41;;;18.00;31.41
30819;BME280;17546;42.674;23.284;2023-04-08T12:33:27;94739.31;;;17.73;32.11
30819;BME280;17546;42.674;23.284;2023-04-08T12:35:53;94724.88;;;17.69;31.97
30819;BME280;17546;42.674;23.284;2023-04-08T12:38:18;94718.03;;;17.91;31.94
30819;BME280;17546;42.674;23.284;2023-04-08T12:40:44;94679.22;;;17.61;31.59
30819;BME280;17546;42.674;23.284;2023-04-08T12:43:09;94723.47;;;17.96;31.97
30819;BME280;17546;42.674;23.284;2023-04-08T12:45:35;94724.66;;;18.22;32.03
30819;BME280;17546;42.674;23.284;2023-04-08T12:48:00;94733.22;;;17.48;32.67
30819;BME280;17546;42.674;23.284;2023-04-08T12:50:26;94740.94;;;17.21;32.56
30819;BME280;17546;42.674;23.284;2023-04-08T12:52:51;94744.56;;;17.42;32.46
30819;BME280;17546;42.674;23.284;2023-04-08T12:55:17;94739.75;;;17.64;31.91
30819;BME280;17546;42.674;23.284;2023-04-08T12:57:43;94767.00;;;17.63;32.23
30819;BME280;17546;42.674;23.284;2023-04-08T13:00:09;94771.28;;;17.77;31.97
30819;BME280;17546;42.674;23.284;2023-04-08T13:02:35;94773.56;;;17.66;32.29
30819;BME280;17546;42.674;23.284;2023-04-08T13:05:01;94775.78;;;17.81;32.71
30819;BME280;17546;42.674;23.284;2023-04-08T13:07:26;94740.91;;;17.82;33.32
30819;BME280;17546;42.674;23.284;2023-04-08T13:09:51;94750.56;;;17.60;35.34